createdAt,value
2024-04-08T15:35:16.709Z,25.90
2024-04-08T15:37:48.988Z,25.90
2024-04-08T15:40:24.046Z,26.00
2024-04-08T15:42:55.884Z,26.00
2024-04-08T15:45:27.882Z,26.00
2024-04-08T15:48:00.027Z,26.00
2024-04-08T15:50:32.112Z,26.20
2024-04-08T15:53:04.022Z,26.20
2024-04-08T15:55:41.303Z,26.10
2024-04-08T15:58:13.512Z,26.20
2024-04-08T16:00:46.445Z,26.10
2024-04-08T16:03:18.458Z,26.00
2024-04-08T16:05:50.531Z,25.80
2024-04-08T16:08:22.470Z,25.60
2024-04-08T16:10:54.277Z,25.40
2024-04-08T16:13:26.184Z,25.30
2024-04-08T16:15:58.460Z,25.20
2024-04-08T16:18:30.814Z,25.10
2024-04-08T16:21:05.139Z,25.00
2024-04-08T16:26:12.674Z,24.70
2024-04-08T16:28:44.648Z,24.60
2024-04-08T16:31:16.498Z,24.50
2024-04-08T16:33:48.438Z,24.30
2024-04-08T16:36:20.349Z,24.20
2024-04-08T16:38:52.212Z,24.00
2024-04-08T16:41:24.123Z,24.00
2024-04-08T16:43:56.118Z,23.90
2024-04-08T16:46:28.603Z,23.70
2024-04-08T16:49:00.621Z,23.60
2024-04-08T16:51:33.160Z,23.40
2024-04-08T16:54:05.690Z,23.40
2024-04-08T16:56:37.748Z,23.20
2024-04-08T16:59:09.663Z,23.10
2024-04-08T17:01:41.475Z,22.90
2024-04-08T17:04:14.845Z,22.70
2024-04-08T17:06:52.375Z,22.60
2024-04-08T17:09:27.246Z,22.40
2024-04-08T17:11:59.183Z,22.30
2024-04-08T17:14:31.047Z,22.20
2024-04-08T17:17:02.990Z,22.00
2024-04-08T17:19:34.863Z,21.90
2024-04-08T17:22:06.698Z,21.80
2024-04-08T17:24:41.054Z,21.70
2024-04-08T17:27:13.101Z,21.70
2024-04-08T17:29:48.072Z,21.50
2024-04-08T17:32:20.070Z,21.40
2024-04-08T17:34:53.816Z,21.30
2024-04-08T17:37:25.711Z,21.20
2024-04-08T17:39:57.725Z,21.10
2024-04-08T17:42:39.653Z,21.00
2024-04-08T17:45:16.669Z,20.90
2024-04-08T17:47:48.603Z,20.80
2024-04-08T17:50:20.946Z,20.70
2024-04-08T17:52:55.005Z,20.60
2024-04-08T17:55:27.480Z,20.50
2024-04-08T17:57:59.296Z,20.30
2024-04-08T18:00:31.560Z,20.20
2024-04-08T18:03:03.790Z,20.10
2024-04-08T18:05:36.270Z,20.00
2024-04-08T18:08:08.111Z,19.90
2024-04-08T18:10:41.735Z,19.80
2024-04-08T18:13:13.749Z,19.70
2024-04-08T18:15:45.710Z,19.60
2024-04-08T18:18:17.586Z,19.50
2024-04-08T18:21:00.179Z,19.40
2024-04-08T18:23:33.077Z,19.30
2024-04-08T18:26:07.573Z,19.20
2024-04-08T18:28:41.578Z,19.10
2024-04-08T18:31:15.393Z,19.10
2024-04-08T18:33:49.637Z,19.00
2024-04-08T18:36:21.650Z,19.00
2024-04-08T18:38:53.752Z,18.90
2024-04-08T18:41:25.752Z,18.90
2024-04-08T18:43:57.598Z,18.80
2024-04-08T18:46:29.444Z,18.80
2024-04-08T18:49:01.343Z,18.70
2024-04-08T18:51:33.667Z,18.60
2024-04-08T18:54:05.643Z,18.50
2024-04-08T18:56:37.458Z,18.40
2024-04-08T18:59:09.278Z,18.40
2024-04-08T19:01:41.120Z,18.30
2024-04-08T19:04:13.141Z,18.20
2024-04-08T19:06:45.103Z,18.20
2024-04-08T19:09:17.021Z,18.10
2024-04-08T19:11:53.072Z,18.10
2024-04-08T19:14:25.455Z,18.00
2024-04-08T19:16:58.463Z,18.00
2024-04-08T19:19:30.691Z,17.90
2024-04-08T19:22:02.645Z,17.90
2024-04-08T19:24:34.573Z,17.80
2024-04-08T19:27:06.521Z,17.80
2024-04-08T19:29:38.350Z,17.70
2024-04-08T19:32:10.309Z,17.70
2024-04-08T19:34:42.233Z,17.60
2024-04-08T19:37:14.043Z,17.50
2024-04-08T19:39:49.500Z,17.50
2024-04-08T19:42:21.380Z,17.40
2024-04-08T19:44:56.075Z,17.40
2024-04-08T19:47:29.607Z,17.30
2024-04-08T19:50:03.724Z,17.40
2024-04-08T19:52:35.855Z,17.30
2024-04-08T19:55:07.980Z,17.30
2024-04-08T19:57:39.899Z,17.20
2024-04-08T20:00:12.264Z,17.10
2024-04-08T20:02:44.221Z,17.00
2024-04-08T20:05:18.693Z,17.00
2024-04-08T20:07:50.802Z,17.00
2024-04-08T20:10:22.690Z,17.00
2024-04-08T20:12:54.578Z,17.00
2024-04-08T20:15:26.567Z,17.00
2024-04-08T20:17:59.085Z,17.00
2024-04-08T20:20:31.204Z,16.90
2024-04-08T20:23:03.321Z,16.90
2024-04-08T20:25:35.283Z,16.80
2024-04-08T20:28:08.968Z,16.80
2024-04-08T20:30:42.259Z,16.80
2024-04-08T20:33:14.134Z,16.80
2024-04-08T20:36:01.253Z,16.80
2024-04-08T20:38:34.733Z,16.80
2024-04-08T20:41:08.297Z,16.80
2024-04-08T20:43:41.500Z,16.80
2024-04-08T20:46:13.594Z,16.70
2024-04-08T20:48:46.347Z,16.80
2024-04-08T20:51:18.444Z,16.70
2024-04-08T20:53:50.637Z,16.70
2024-04-08T20:56:22.497Z,16.70
2024-04-08T20:58:54.429Z,16.70
2024-04-08T21:01:26.290Z,16.70
2024-04-08T21:03:58.418Z,16.60
2024-04-08T21:06:30.371Z,16.60
2024-04-08T21:09:02.331Z,16.60
2024-04-08T21:11:34.207Z,16.60
2024-04-08T21:14:07.518Z,16.60
2024-04-08T21:16:39.977Z,16.50
2024-04-08T21:19:13.625Z,16.50
2024-04-08T21:21:45.569Z,16.50
2024-04-08T21:24:17.600Z,16.60
2024-04-08T21:26:49.538Z,16.60
2024-04-08T21:29:21.762Z,16.60
2024-04-08T21:31:53.747Z,16.60
2024-04-08T21:34:26.648Z,16.70
2024-04-08T21:36:58.607Z,16.70
2024-04-08T21:39:30.763Z,16.70
2024-04-08T21:42:02.718Z,16.80
2024-04-08T21:44:34.618Z,17.00
2024-04-08T21:47:06.696Z,17.00
2024-04-08T21:49:38.700Z,17.00
2024-04-08T21:52:10.716Z,17.10
2024-04-08T21:54:42.714Z,17.20
2024-04-08T21:57:14.647Z,17.10
2024-04-08T21:59:47.919Z,17.00
2024-04-08T22:02:19.763Z,17.00
2024-04-08T22:04:52.320Z,16.90
2024-04-08T22:07:24.871Z,16.90
2024-04-08T22:09:56.740Z,16.90
2024-04-08T22:12:28.702Z,16.70
2024-04-08T22:15:00.652Z,16.70
2024-04-08T22:17:32.561Z,16.70
2024-04-08T22:20:05.894Z,16.60
2024-04-08T22:22:37.804Z,16.50
2024-04-08T22:25:09.599Z,16.40
2024-04-08T22:27:41.953Z,16.30
2024-04-08T22:30:14.070Z,16.30
2024-04-08T22:32:46.017Z,16.30
2024-04-08T22:35:17.896Z,16.30
2024-04-08T22:37:50.532Z,16.30
2024-04-08T22:40:22.633Z,16.30
2024-04-08T22:42:54.568Z,16.20
2024-04-08T22:45:26.725Z,16.30
2024-04-08T22:47:58.968Z,16.40
2024-04-08T22:50:30.949Z,16.30
2024-04-08T22:53:02.878Z,16.20
2024-04-08T22:55:34.807Z,16.20
2024-04-08T22:58:06.725Z,16.20
2024-04-08T23:00:38.823Z,16.10
2024-04-08T23:03:10.964Z,16.00
2024-04-08T23:05:43.316Z,16.00
2024-04-08T23:08:15.330Z,16.00
2024-04-08T23:10:47.267Z,16.00
2024-04-08T23:13:19.185Z,15.90
2024-04-08T23:15:51.179Z,15.90
2024-04-08T23:18:23.267Z,15.90
2024-04-08T23:20:55.285Z,15.90
2024-04-08T23:23:29.348Z,15.80
2024-04-08T23:26:02.372Z,15.80
2024-04-08T23:28:34.367Z,15.70
2024-04-08T23:31:06.674Z,15.70
2024-04-08T23:33:38.835Z,15.70
2024-04-08T23:36:11.312Z,15.60
2024-04-08T23:38:43.306Z,15.60
2024-04-08T23:41:15.560Z,15.60
2024-04-08T23:43:48.043Z,15.60
2024-04-08T23:46:20.085Z,15.60
2024-04-08T23:48:52.101Z,15.60
2024-04-08T23:51:24.140Z,15.60
2024-04-08T23:53:59.005Z,15.60
2024-04-08T23:56:30.984Z,15.50
2024-04-08T23:59:02.978Z,15.50
